sensor_id;sensor_type;location;lat;lon;timestamp;P1;durP1;ratioP1;P2;durP2;ratioP2
2201;SDS011;1107;48.654;9.250;2023-05-10T00:01:16;2.40;;;2.20;;
2201;SDS011;1107;48.654;9.250;2023-05-10T00:03:43;2.50;;;2.30;;
2201;SDS011;1107;48.654;9.250;2023-05-10T00:06:10;2.07;;;1.97;;
2201;SDS011;1107;48.654;9.250;2023-05-10T00:08:37;2.10;;;2.00;;
2201;SDS011;1107;48.654;9.250;2023-05-10T00:11:05;2.30;;;2.20;;
2201;SDS011;1107;48.654;9.250;2023-05-10T00:13:32;6.23;;;1.90;;
2201;SDS011;1107;48.654;9.250;2023-05-10T00:15:59;3.50;;;1.80;;
2201;SDS011;1107;48.654;9.250;2023-05-10T00:18:26;2.00;;;1.90;;
2201;SDS011;1107;48.654;9.250;2023-05-10T00:20:53;1.90;;;1.80;;
2201;SDS011;1107;48.654;9.250;2023-05-10T00:23:21;2.23;;;2.03;;
2201;SDS011;1107;48.654;9.250;2023-05-10T00:25:48;1.90;;;1.80;;
2201;SDS011;1107;48.654;9.250;2023-05-10T00:28:16;1.90;;;1.80;;
2201;SDS011;1107;48.654;9.250;2023-05-10T00:30:43;2.17;;;2.00;;
2201;SDS011;1107;48.654;9.250;2023-05-10T00:33:10;1.70;;;1.60;;
2201;SDS011;1107;48.654;9.250;2023-05-10T00:35:37;1.83;;;1.73;;
2201;SDS011;1107;48.654;9.250;2023-05-10T00:38:04;2.00;;;1.80;;
2201;SDS011;1107;48.654;9.250;2023-05-10T00:40:32;3.83;;;1.37;;
2201;SDS011;1107;48.654;9.250;2023-05-10T00:42:59;2.93;;;0.70;;
2201;SDS011;1107;48.654;9.250;2023-05-10T00:45:28;1.20;;;0.50;;
2201;SDS011;1107;48.654;9.250;2023-05-10T00:47:55;3.50;;;0.60;;
2201;SDS011;1107;48.654;9.250;2023-05-10T00:50:23;1.20;;;0.50;;
2201;SDS011;1107;48.654;9.250;2023-05-10T00:52:50;1.60;;;0.70;;
2201;SDS011;1107;48.654;9.250;2023-05-10T00:55:17;1.27;;;0.60;;
2201;SDS011;1107;48.654;9.250;2023-05-10T00:57:44;1.30;;;0.60;;
2201;SDS011;1107;48.654;9.250;2023-05-10T01:00:12;2.50;;;0.60;;
2201;SDS011;1107;48.654;9.250;2023-05-10T01:02:44;1.30;;;0.60;;
2201;SDS011;1107;48.654;9.250;2023-05-10T01:05:12;2.83;;;0.60;;
2201;SDS011;1107;48.654;9.250;2023-05-10T01:07:39;1.40;;;0.60;;
2201;SDS011;1107;48.654;9.250;2023-05-10T01:10:06;1.30;;;0.60;;
2201;SDS011;1107;48.654;9.250;2023-05-10T01:12:34;1.40;;;0.90;;
2201;SDS011;1107;48.654;9.250;2023-05-10T01:15:04;13.93;;;0.80;;
2201;SDS011;1107;48.654;9.250;2023-05-10T01:17:33;1.30;;;0.70;;
2201;SDS011;1107;48.654;9.250;2023-05-10T01:20:02;4.40;;;0.90;;
2201;SDS011;1107;48.654;9.250;2023-05-10T01:25:37;1.27;;;0.70;;
2201;SDS011;1107;48.654;9.250;2023-05-10T01:28:58;8.40;;;0.70;;
2201;SDS011;1107;48.654;9.250;2023-05-10T01:34:39;1.30;;;0.60;;
2201;SDS011;1107;48.654;9.250;2023-05-10T01:37:13;1.40;;;0.60;;
2201;SDS011;1107;48.654;9.250;2023-05-10T01:39:47;1.30;;;0.70;;
2201;SDS011;1107;48.654;9.250;2023-05-10T01:42:21;1.30;;;0.60;;
2201;SDS011;1107;48.654;9.250;2023-05-10T01:44:53;1.30;;;0.57;;
2201;SDS011;1107;48.654;9.250;2023-05-10T01:47:30;1.40;;;0.70;;
2201;SDS011;1107;48.654;9.250;2023-05-10T01:50:02;1.40;;;0.70;;
2201;SDS011;1107;48.654;9.250;2023-05-10T01:52:33;1.40;;;0.60;;
2201;SDS011;1107;48.654;9.250;2023-05-10T01:55:08;1.30;;;0.60;;
2201;SDS011;1107;48.654;9.250;2023-05-10T01:57:37;1.87;;;0.70;;
2201;SDS011;1107;48.654;9.250;2023-05-10T02:00:08;5.60;;;0.77;;
2201;SDS011;1107;48.654;9.250;2023-05-10T02:02:39;1.40;;;0.63;;
2201;SDS011;1107;48.654;9.250;2023-05-10T02:05:08;1.50;;;0.80;;
2201;SDS011;1107;48.654;9.250;2023-05-10T02:07:39;1.40;;;0.90;;
2201;SDS011;1107;48.654;9.250;2023-05-10T02:10:07;1.30;;;0.60;;
2201;SDS011;1107;48.654;9.250;2023-05-10T02:12:37;1.30;;;0.60;;
2201;SDS011;1107;48.654;9.250;2023-05-10T02:15:07;3.60;;;0.60;;
2201;SDS011;1107;48.654;9.250;2023-05-10T02:17:39;1.30;;;0.70;;
2201;SDS011;1107;48.654;9.250;2023-05-10T02:20:08;1.27;;;0.60;;
2201;SDS011;1107;48.654;9.250;2023-05-10T02:22:36;3.47;;;0.70;;
2201;SDS011;1107;48.654;9.250;2023-05-10T02:25:05;1.40;;;0.70;;
2201;SDS011;1107;48.654;9.250;2023-05-10T02:27:34;2.53;;;0.70;;
2201;SDS011;1107;48.654;9.250;2023-05-10T02:30:03;1.40;;;0.80;;
2201;SDS011;1107;48.654;9.250;2023-05-10T02:32:32;1.87;;;0.80;;
2201;SDS011;1107;48.654;9.250;2023-05-10T02:35:02;2.07;;;0.70;;
2201;SDS011;1107;48.654;9.250;2023-05-10T02:37:30;2.17;;;0.70;;
2201;SDS011;1107;48.654;9.250;2023-05-10T02:39:57;3.67;;;0.70;;
2201;SDS011;1107;48.654;9.250;2023-05-10T02:42:26;3.20;;;0.60;;
2201;SDS011;1107;48.654;9.250;2023-05-10T02:44:54;1.30;;;0.70;;
2201;SDS011;1107;48.654;9.250;2023-05-10T02:47:25;2.40;;;0.73;;
2201;SDS011;1107;48.654;9.250;2023-05-10T02:49:53;1.30;;;0.70;;
2201;SDS011;1107;48.654;9.250;2023-05-10T02:52:23;1.27;;;0.60;;
2201;SDS011;1107;48.654;9.250;2023-05-10T02:54:55;7.10;;;1.20;;
2201;SDS011;1107;48.654;9.250;2023-05-10T02:57:27;1.30;;;0.60;;
2201;SDS011;1107;48.654;9.250;2023-05-10T02:59:58;1.30;;;0.70;;
2201;SDS011;1107;48.654;9.250;2023-05-10T03:02:25;1.40;;;0.80;;
2201;SDS011;1107;48.654;9.250;2023-05-10T03:04:53;1.40;;;0.60;;
2201;SDS011;1107;48.654;9.250;2023-05-10T03:07:20;1.30;;;0.60;;
2201;SDS011;1107;48.654;9.250;2023-05-10T03:09:48;3.03;;;0.60;;
2201;SDS011;1107;48.654;9.250;2023-05-10T03:12:18;1.50;;;0.87;;
2201;SDS011;1107;48.654;9.250;2023-05-10T03:14:57;1.30;;;0.73;;
2201;SDS011;1107;48.654;9.250;2023-05-10T03:17:32;1.43;;;0.80;;
2201;SDS011;1107;48.654;9.250;2023-05-10T03:20:08;3.20;;;1.63;;
2201;SDS011;1107;48.654;9.250;2023-05-10T03:22:40;1.30;;;0.60;;
2201;SDS011;1107;48.654;9.250;2023-05-10T03:25:10;1.33;;;0.83;;
2201;SDS011;1107;48.654;9.250;2023-05-10T03:27:39;1.90;;;1.07;;
2201;SDS011;1107;48.654;9.250;2023-05-10T03:30:08;2.97;;;0.70;;
2201;SDS011;1107;48.654;9.250;2023-05-10T03:32:36;1.50;;;1.00;;
2201;SDS011;1107;48.654;9.250;2023-05-10T03:35:06;1.30;;;0.73;;
2201;SDS011;1107;48.654;9.250;2023-05-10T03:37:34;1.40;;;0.83;;
2201;SDS011;1107;48.654;9.250;2023-05-10T03:40:03;1.93;;;0.83;;
2201;SDS011;1107;48.654;9.250;2023-05-10T03:42:31;1.50;;;1.17;;
2201;SDS011;1107;48.654;9.250;2023-05-10T03:44:58;4.70;;;1.03;;
2201;SDS011;1107;48.654;9.250;2023-05-10T03:47:25;1.37;;;0.90;;
2201;SDS011;1107;48.654;9.250;2023-05-10T03:49:52;1.40;;;0.90;;
2201;SDS011;1107;48.654;9.250;2023-05-10T03:52:18;2.10;;;1.97;;
2201;SDS011;1107;48.654;9.250;2023-05-10T03:54:45;2.13;;;1.30;;
2201;SDS011;1107;48.654;9.250;2023-05-10T03:57:14;1.60;;;1.50;;
2201;SDS011;1107;48.654;9.250;2023-05-10T03:59:41;1.40;;;1.10;;
2201;SDS011;1107;48.654;9.250;2023-05-10T04:02:07;1.40;;;1.10;;
2201;SDS011;1107;48.654;9.250;2023-05-10T04:04:35;1.50;;;1.27;;
2201;SDS011;1107;48.654;9.250;2023-05-10T04:07:02;2.47;;;1.00;;
2201;SDS011;1107;48.654;9.250;2023-05-10T04:09:29;1.40;;;0.77;;
2201;SDS011;1107;48.654;9.250;2023-05-10T04:11:58;1.50;;;1.10;;
2201;SDS011;1107;48.654;9.250;2023-05-10T04:14:27;1.40;;;1.10;;
2201;SDS011;1107;48.654;9.250;2023-05-10T04:16:54;1.40;;;0.97;;
2201;SDS011;1107;48.654;9.250;2023-05-10T04:19:21;1.40;;;0.93;;
2201;SDS011;1107;48.654;9.250;2023-05-10T04:21:48;1.50;;;1.10;;
2201;SDS011;1107;48.654;9.250;2023-05-10T04:24:15;1.50;;;1.20;;
2201;SDS011;1107;48.654;9.250;2023-05-10T04:26:42;1.60;;;1.10;;
2201;SDS011;1107;48.654;9.250;2023-05-10T04:29:09;1.50;;;1.20;;
2201;SDS011;1107;48.654;9.250;2023-05-10T04:31:37;2.53;;;1.40;;
2201;SDS011;1107;48.654;9.250;2023-05-10T04:34:04;1.60;;;1.30;;
2201;SDS011;1107;48.654;9.250;2023-05-10T04:36:31;1.73;;;1.63;;
2201;SDS011;1107;48.654;9.250;2023-05-10T04:39:00;1.70;;;1.20;;
2201;SDS011;1107;48.654;9.250;2023-05-10T04:41:28;3.80;;;1.60;;
2201;SDS011;1107;48.654;9.250;2023-05-10T04:43:55;1.77;;;1.40;;
2201;SDS011;1107;48.654;9.250;2023-05-10T04:46:22;7.30;;;1.27;;
2201;SDS011;1107;48.654;9.250;2023-05-10T04:48:51;1.50;;;1.10;;
2201;SDS011;1107;48.654;9.250;2023-05-10T04:51:18;1.50;;;1.10;;
2201;SDS011;1107;48.654;9.250;2023-05-10T04:53:45;2.70;;;1.30;;
2201;SDS011;1107;48.654;9.250;2023-05-10T04:56:12;1.60;;;1.30;;
2201;SDS011;1107;48.654;9.250;2023-05-10T04:58:39;1.40;;;1.00;;
2201;SDS011;1107;48.654;9.250;2023-05-10T05:01:06;1.60;;;1.20;;
2201;SDS011;1107;48.654;9.250;2023-05-10T05:03:33;1.50;;;1.20;;
2201;SDS011;1107;48.654;9.250;2023-05-10T05:06:02;1.90;;;1.00;;
2201;SDS011;1107;48.654;9.250;2023-05-10T05:08:30;2.33;;;1.30;;
2201;SDS011;1107;48.654;9.250;2023-05-10T05:10:57;1.67;;;1.40;;
2201;SDS011;1107;48.654;9.250;2023-05-10T05:13:24;2.87;;;1.60;;
2201;SDS011;1107;48.654;9.250;2023-05-10T05:15:51;1.50;;;1.10;;
2201;SDS011;1107;48.654;9.250;2023-05-10T05:18:18;1.67;;;1.17;;
2201;SDS011;1107;48.654;9.250;2023-05-10T05:20:45;1.50;;;1.27;;
2201;SDS011;1107;48.654;9.250;2023-05-10T05:23:14;1.57;;;1.47;;
2201;SDS011;1107;48.654;9.250;2023-05-10T05:25:41;2.27;;;1.60;;
2201;SDS011;1107;48.654;9.250;2023-05-10T05:28:08;1.50;;;1.33;;
2201;SDS011;1107;48.654;9.250;2023-05-10T05:30:35;6.03;;;1.53;;
2201;SDS011;1107;48.654;9.250;2023-05-10T05:33:02;3.40;;;1.43;;
2201;SDS011;1107;48.654;9.250;2023-05-10T05:35:30;3.30;;;2.00;;
2201;SDS011;1107;48.654;9.250;2023-05-10T05:37:57;5.77;;;1.37;;
2201;SDS011;1107;48.654;9.250;2023-05-10T05:40:25;1.60;;;1.47;;
2201;SDS011;1107;48.654;9.250;2023-05-10T05:42:52;1.60;;;1.43;;
2201;SDS011;1107;48.654;9.250;2023-05-10T05:45:19;1.40;;;1.20;;
2201;SDS011;1107;48.654;9.250;2023-05-10T05:47:46;1.70;;;1.30;;
2201;SDS011;1107;48.654;9.250;2023-05-10T05:50:13;1.50;;;1.27;;
2201;SDS011;1107;48.654;9.250;2023-05-10T05:52:40;4.33;;;1.70;;
2201;SDS011;1107;48.654;9.250;2023-05-10T05:55:07;2.33;;;1.30;;
2201;SDS011;1107;48.654;9.250;2023-05-10T05:57:36;1.63;;;1.50;;
2201;SDS011;1107;48.654;9.250;2023-05-10T06:00:03;1.40;;;1.10;;
2201;SDS011;1107;48.654;9.250;2023-05-10T06:02:31;3.53;;;1.20;;
2201;SDS011;1107;48.654;9.250;2023-05-10T06:04:58;2.57;;;1.40;;
2201;SDS011;1107;48.654;9.250;2023-05-10T06:07:25;2.90;;;1.43;;
2201;SDS011;1107;48.654;9.250;2023-05-10T06:09:52;2.20;;;1.50;;
2201;SDS011;1107;48.654;9.250;2023-05-10T06:12:19;1.40;;;1.20;;
2201;SDS011;1107;48.654;9.250;2023-05-10T06:14:47;1.60;;;1.33;;
2201;SDS011;1107;48.654;9.250;2023-05-10T06:17:15;4.53;;;2.00;;
2201;SDS011;1107;48.654;9.250;2023-05-10T06:19:42;1.50;;;1.23;;
2201;SDS011;1107;48.654;9.250;2023-05-10T06:22:09;1.50;;;1.40;;
2201;SDS011;1107;48.654;9.250;2023-05-10T06:24:36;2.33;;;1.67;;
2201;SDS011;1107;48.654;9.250;2023-05-10T06:27:03;1.60;;;1.50;;
2201;SDS011;1107;48.654;9.250;2023-05-10T06:29:30;3.43;;;1.70;;
2201;SDS011;1107;48.654;9.250;2023-05-10T06:31:59;4.63;;;1.70;;
2201;SDS011;1107;48.654;9.250;2023-05-10T06:34:26;1.60;;;1.47;;
2201;SDS011;1107;48.654;9.250;2023-05-10T06:36:53;1.60;;;1.50;;
2201;SDS011;1107;48.654;9.250;2023-05-10T06:39:20;1.70;;;1.50;;
2201;SDS011;1107;48.654;9.250;2023-05-10T06:41:47;1.70;;;1.60;;
2201;SDS011;1107;48.654;9.250;2023-05-10T06:44:14;1.70;;;1.60;;
2201;SDS011;1107;48.654;9.250;2023-05-10T06:46:41;2.57;;;1.80;;
2201;SDS011;1107;48.654;9.250;2023-05-10T06:49:09;1.47;;;1.33;;
2201;SDS011;1107;48.654;9.250;2023-05-10T06:51:36;1.97;;;1.87;;
2201;SDS011;1107;48.654;9.250;2023-05-10T06:54:03;1.63;;;1.53;;
2201;SDS011;1107;48.654;9.250;2023-05-10T06:56:30;1.77;;;1.67;;
2201;SDS011;1107;48.654;9.250;2023-05-10T06:58:57;1.40;;;1.30;;
2201;SDS011;1107;48.654;9.250;2023-05-10T07:01:24;1.40;;;1.13;;
2201;SDS011;1107;48.654;9.250;2023-05-10T07:03:51;3.40;;;1.27;;
2201;SDS011;1107;48.654;9.250;2023-05-10T07:06:19;3.77;;;1.70;;
2201;SDS011;1107;48.654;9.250;2023-05-10T07:08:46;1.87;;;1.77;;
2201;SDS011;1107;48.654;9.250;2023-05-10T07:11:13;1.77;;;1.67;;
2201;SDS011;1107;48.654;9.250;2023-05-10T07:13:40;2.83;;;1.27;;
2201;SDS011;1107;48.654;9.250;2023-05-10T07:16:09;1.93;;;1.60;;
2201;SDS011;1107;48.654;9.250;2023-05-10T07:18:36;1.63;;;1.53;;
2201;SDS011;1107;48.654;9.250;2023-05-10T07:21:03;1.90;;;1.70;;
2201;SDS011;1107;48.654;9.250;2023-05-10T07:23:32;1.60;;;1.47;;
2201;SDS011;1107;48.654;9.250;2023-05-10T07:25:59;2.43;;;1.60;;
2201;SDS011;1107;48.654;9.250;2023-05-10T07:28:27;3.10;;;1.30;;
2201;SDS011;1107;48.654;9.250;2023-05-10T07:30:54;1.60;;;1.50;;
2201;SDS011;1107;48.654;9.250;2023-05-10T07:33:21;1.40;;;1.20;;
2201;SDS011;1107;48.654;9.250;2023-05-10T07:35:49;2.23;;;1.70;;
2201;SDS011;1107;48.654;9.250;2023-05-10T07:38:16;2.27;;;1.37;;
2201;SDS011;1107;48.654;9.250;2023-05-10T07:40:45;1.70;;;1.30;;
2201;SDS011;1107;48.654;9.250;2023-05-10T07:43:12;3.23;;;1.20;;
2201;SDS011;1107;48.654;9.250;2023-05-10T07:45:39;2.40;;;1.37;;
2201;SDS011;1107;48.654;9.250;2023-05-10T07:48:06;1.80;;;1.70;;
2201;SDS011;1107;48.654;9.250;2023-05-10T07:50:33;1.50;;;1.30;;
2201;SDS011;1107;48.654;9.250;2023-05-10T07:53:00;1.53;;;1.40;;
2201;SDS011;1107;48.654;9.250;2023-05-10T07:55:27;1.57;;;1.30;;
2201;SDS011;1107;48.654;9.250;2023-05-10T07:57:55;2.43;;;1.20;;
2201;SDS011;1107;48.654;9.250;2023-05-10T08:00:22;1.70;;;1.60;;
2201;SDS011;1107;48.654;9.250;2023-05-10T08:02:49;1.97;;;1.00;;
2201;SDS011;1107;48.654;9.250;2023-05-10T08:05:16;1.63;;;1.23;;
2201;SDS011;1107;48.654;9.250;2023-05-10T08:07:43;1.80;;;1.20;;
2201;SDS011;1107;48.654;9.250;2023-05-10T08:10:10;1.80;;;1.30;;
2201;SDS011;1107;48.654;9.250;2023-05-10T08:12:37;3.10;;;1.30;;
2201;SDS011;1107;48.654;9.250;2023-05-10T08:15:07;2.60;;;1.10;;
2201;SDS011;1107;48.654;9.250;2023-05-10T08:17:35;4.20;;;1.47;;
2201;SDS011;1107;48.654;9.250;2023-05-10T08:20:02;6.80;;;1.20;;
2201;SDS011;1107;48.654;9.250;2023-05-10T08:22:30;1.53;;;1.40;;
2201;SDS011;1107;48.654;9.250;2023-05-10T08:24:56;2.57;;;1.30;;
2201;SDS011;1107;48.654;9.250;2023-05-10T08:27:24;3.50;;;1.03;;
2201;SDS011;1107;48.654;9.250;2023-05-10T08:29:51;2.10;;;1.27;;
2201;SDS011;1107;48.654;9.250;2023-05-10T08:32:19;5.73;;;1.37;;
2201;SDS011;1107;48.654;9.250;2023-05-10T08:34:46;1.63;;;1.40;;
2201;SDS011;1107;48.654;9.250;2023-05-10T08:37:13;1.50;;;1.20;;
2201;SDS011;1107;48.654;9.250;2023-05-10T08:39:41;1.53;;;1.20;;
2201;SDS011;1107;48.654;9.250;2023-05-10T08:42:08;1.50;;;1.20;;
2201;SDS011;1107;48.654;9.250;2023-05-10T08:44:36;2.90;;;1.20;;
2201;SDS011;1107;48.654;9.250;2023-05-10T08:47:04;4.80;;;1.20;;
2201;SDS011;1107;48.654;9.250;2023-05-10T08:49:33;1.50;;;1.00;;
2201;SDS011;1107;48.654;9.250;2023-05-10T08:52:02;1.80;;;1.20;;
2201;SDS011;1107;48.654;9.250;2023-05-10T08:54:31;1.43;;;1.10;;
2201;SDS011;1107;48.654;9.250;2023-05-10T08:56:58;1.57;;;1.07;;
2201;SDS011;1107;48.654;9.250;2023-05-10T08:59:26;2.93;;;1.13;;
2201;SDS011;1107;48.654;9.250;2023-05-10T09:01:53;1.50;;;0.97;;
2201;SDS011;1107;48.654;9.250;2023-05-10T09:04:23;2.67;;;0.90;;
2201;SDS011;1107;48.654;9.250;2023-05-10T09:06:52;1.83;;;1.13;;
2201;SDS011;1107;48.654;9.250;2023-05-10T09:09:19;1.97;;;1.87;;
2201;SDS011;1107;48.654;9.250;2023-05-10T09:11:47;1.50;;;1.23;;
2201;SDS011;1107;48.654;9.250;2023-05-10T09:14:14;2.43;;;0.80;;
2201;SDS011;1107;48.654;9.250;2023-05-10T09:16:42;3.30;;;0.90;;
2201;SDS011;1107;48.654;9.250;2023-05-10T09:19:10;1.40;;;0.80;;
2201;SDS011;1107;48.654;9.250;2023-05-10T09:21:37;1.30;;;0.70;;
2201;SDS011;1107;48.654;9.250;2023-05-10T09:24:06;1.43;;;1.00;;
2201;SDS011;1107;48.654;9.250;2023-05-10T09:26:34;1.60;;;1.10;;
2201;SDS011;1107;48.654;9.250;2023-05-10T09:29:02;1.70;;;0.87;;
2201;SDS011;1107;48.654;9.250;2023-05-10T09:31:46;1.90;;;0.70;;
2201;SDS011;1107;48.654;9.250;2023-05-10T09:34:16;1.40;;;0.80;;
2201;SDS011;1107;48.654;9.250;2023-05-10T09:36:50;1.50;;;0.80;;
2201;SDS011;1107;48.654;9.250;2023-05-10T09:39:31;1.37;;;0.80;;
2201;SDS011;1107;48.654;9.250;2023-05-10T09:41:59;3.23;;;1.17;;
2201;SDS011;1107;48.654;9.250;2023-05-10T09:44:28;1.40;;;0.80;;
2201;SDS011;1107;48.654;9.250;2023-05-10T09:46:55;1.40;;;0.80;;
2201;SDS011;1107;48.654;9.250;2023-05-10T09:49:23;1.40;;;0.90;;
2201;SDS011;1107;48.654;9.250;2023-05-10T09:52:00;1.40;;;0.77;;
2201;SDS011;1107;48.654;9.250;2023-05-10T09:54:28;1.40;;;0.87;;
2201;SDS011;1107;48.654;9.250;2023-05-10T09:56:57;1.50;;;0.97;;
2201;SDS011;1107;48.654;9.250;2023-05-10T09:59:24;1.30;;;0.60;;
2201;SDS011;1107;48.654;9.250;2023-05-10T10:01:52;4.70;;;1.00;;
2201;SDS011;1107;48.654;9.250;2023-05-10T10:04:21;1.50;;;0.90;;
2201;SDS011;1107;48.654;9.250;2023-05-10T10:06:57;1.50;;;0.70;;
2201;SDS011;1107;48.654;9.250;2023-05-10T10:09:26;1.40;;;0.70;;
2201;SDS011;1107;48.654;9.250;2023-05-10T10:11:55;3.40;;;0.70;;
2201;SDS011;1107;48.654;9.250;2023-05-10T10:14:22;1.53;;;0.70;;
2201;SDS011;1107;48.654;9.250;2023-05-10T10:16:50;1.30;;;0.60;;
2201;SDS011;1107;48.654;9.250;2023-05-10T10:19:18;1.30;;;0.70;;
2201;SDS011;1107;48.654;9.250;2023-05-10T10:21:45;2.43;;;0.70;;
2201;SDS011;1107;48.654;9.250;2023-05-10T10:24:12;1.30;;;0.70;;
2201;SDS011;1107;48.654;9.250;2023-05-10T10:26:39;3.73;;;0.93;;
2201;SDS011;1107;48.654;9.250;2023-05-10T10:29:13;2.20;;;0.80;;
2201;SDS011;1107;48.654;9.250;2023-05-10T10:31:48;1.80;;;0.80;;
2201;SDS011;1107;48.654;9.250;2023-05-10T10:34:25;1.30;;;0.60;;
2201;SDS011;1107;48.654;9.250;2023-05-10T10:36:54;7.00;;;0.80;;
2201;SDS011;1107;48.654;9.250;2023-05-10T10:39:22;1.47;;;0.70;;
2201;SDS011;1107;48.654;9.250;2023-05-10T10:41:51;1.30;;;0.70;;
2201;SDS011;1107;48.654;9.250;2023-05-10T10:47:21;1.40;;;0.77;;
2201;SDS011;1107;48.654;9.250;2023-05-10T10:49:50;2.57;;;0.73;;
2201;SDS011;1107;48.654;9.250;2023-05-10T10:52:30;1.60;;;0.60;;
2201;SDS011;1107;48.654;9.250;2023-05-10T10:54:58;1.40;;;0.87;;
2201;SDS011;1107;48.654;9.250;2023-05-10T10:57:26;1.60;;;1.20;;
2201;SDS011;1107;48.654;9.250;2023-05-10T11:02:50;3.30;;;0.90;;
2201;SDS011;1107;48.654;9.250;2023-05-10T11:05:35;1.40;;;0.80;;
2201;SDS011;1107;48.654;9.250;2023-05-10T11:08:07;1.40;;;0.70;;
2201;SDS011;1107;48.654;9.250;2023-05-10T11:10:36;1.30;;;0.63;;
2201;SDS011;1107;48.654;9.250;2023-05-10T11:13:03;1.40;;;0.80;;
2201;SDS011;1107;48.654;9.250;2023-05-10T11:15:33;2.17;;;0.70;;
2201;SDS011;1107;48.654;9.250;2023-05-10T11:18:16;1.30;;;0.70;;
2201;SDS011;1107;48.654;9.250;2023-05-10T11:20:44;1.40;;;0.80;;
2201;SDS011;1107;48.654;9.250;2023-05-10T11:23:15;2.03;;;0.87;;
2201;SDS011;1107;48.654;9.250;2023-05-10T11:25:43;2.00;;;0.70;;
2201;SDS011;1107;48.654;9.250;2023-05-10T11:28:10;1.40;;;0.87;;
2201;SDS011;1107;48.654;9.250;2023-05-10T11:30:39;8.23;;;0.90;;
2201;SDS011;1107;48.654;9.250;2023-05-10T11:33:08;4.60;;;1.23;;
2201;SDS011;1107;48.654;9.250;2023-05-10T11:35:39;4.13;;;1.10;;
2201;SDS011;1107;48.654;9.250;2023-05-10T11:38:06;3.13;;;1.20;;
2201;SDS011;1107;48.654;9.250;2023-05-10T11:40:34;1.40;;;0.80;;
2201;SDS011;1107;48.654;9.250;2023-05-10T11:43:01;1.60;;;0.93;;
2201;SDS011;1107;48.654;9.250;2023-05-10T11:45:29;1.80;;;1.30;;
2201;SDS011;1107;48.654;9.250;2023-05-10T11:47:59;1.80;;;0.97;;
2201;SDS011;1107;48.654;9.250;2023-05-10T11:50:27;2.33;;;1.20;;
2201;SDS011;1107;48.654;9.250;2023-05-10T11:52:54;1.40;;;0.90;;
2201;SDS011;1107;48.654;9.250;2023-05-10T11:55:23;4.00;;;1.33;;
2201;SDS011;1107;48.654;9.250;2023-05-10T11:57:51;1.40;;;1.07;;
2201;SDS011;1107;48.654;9.250;2023-05-10T12:00:19;1.60;;;1.10;;
2201;SDS011;1107;48.654;9.250;2023-05-10T12:02:46;1.77;;;1.10;;
2201;SDS011;1107;48.654;9.250;2023-05-10T12:05:14;1.40;;;0.97;;
2201;SDS011;1107;48.654;9.250;2023-05-10T12:07:42;3.73;;;0.93;;
2201;SDS011;1107;48.654;9.250;2023-05-10T12:10:09;3.60;;;1.23;;
2201;SDS011;1107;48.654;9.250;2023-05-10T12:12:39;1.50;;;1.20;;
2201;SDS011;1107;48.654;9.250;2023-05-10T12:15:11;1.40;;;1.00;;
2201;SDS011;1107;48.654;9.250;2023-05-10T12:17:38;1.33;;;0.80;;
2201;SDS011;1107;48.654;9.250;2023-05-10T12:20:17;1.50;;;1.07;;
2201;SDS011;1107;48.654;9.250;2023-05-10T12:22:46;1.60;;;1.07;;
2201;SDS011;1107;48.654;9.250;2023-05-10T12:25:15;1.40;;;1.10;;
2201;SDS011;1107;48.654;9.250;2023-05-10T12:27:47;1.60;;;1.10;;
2201;SDS011;1107;48.654;9.250;2023-05-10T12:30:18;1.50;;;1.03;;
2201;SDS011;1107;48.654;9.250;2023-05-10T12:32:47;1.50;;;1.23;;
2201;SDS011;1107;48.654;9.250;2023-05-10T12:35:14;1.63;;;1.10;;
2201;SDS011;1107;48.654;9.250;2023-05-10T12:37:43;4.83;;;1.30;;
2201;SDS011;1107;48.654;9.250;2023-05-10T12:40:10;3.00;;;1.47;;
2201;SDS011;1107;48.654;9.250;2023-05-10T12:42:38;1.80;;;1.30;;
2201;SDS011;1107;48.654;9.250;2023-05-10T12:45:06;1.40;;;1.20;;
2201;SDS011;1107;48.654;9.250;2023-05-10T12:47:34;3.23;;;1.13;;
2201;SDS011;1107;48.654;9.250;2023-05-10T12:50:01;2.60;;;1.40;;
2201;SDS011;1107;48.654;9.250;2023-05-10T12:52:29;2.53;;;1.40;;
2201;SDS011;1107;48.654;9.250;2023-05-10T12:54:58;1.60;;;1.50;;
2201;SDS011;1107;48.654;9.250;2023-05-10T12:57:26;1.73;;;1.40;;
2201;SDS011;1107;48.654;9.250;2023-05-10T12:59:53;1.80;;;1.50;;
2201;SDS011;1107;48.654;9.250;2023-05-10T13:02:20;1.60;;;1.40;;
2201;SDS011;1107;48.654;9.250;2023-05-10T13:04:48;1.97;;;1.67;;
2201;SDS011;1107;48.654;9.250;2023-05-10T13:07:15;3.30;;;1.20;;
2201;SDS011;1107;48.654;9.250;2023-05-10T13:09:42;1.63;;;1.10;;
2201;SDS011;1107;48.654;9.250;2023-05-10T13:12:10;2.33;;;1.20;;
2201;SDS011;1107;48.654;9.250;2023-05-10T13:14:37;1.40;;;1.27;;
2201;SDS011;1107;48.654;9.250;2023-05-10T13:17:05;1.80;;;1.70;;
2201;SDS011;1107;48.654;9.250;2023-05-10T13:19:33;1.40;;;1.10;;
2201;SDS011;1107;48.654;9.250;2023-05-10T13:21:59;1.97;;;1.47;;
2201;SDS011;1107;48.654;9.250;2023-05-10T13:24:27;3.87;;;1.30;;
2201;SDS011;1107;48.654;9.250;2023-05-10T13:26:53;1.53;;;1.20;;
2201;SDS011;1107;48.654;9.250;2023-05-10T13:29:22;2.10;;;1.33;;
2201;SDS011;1107;48.654;9.250;2023-05-10T13:31:49;3.20;;;1.10;;
2201;SDS011;1107;48.654;9.250;2023-05-10T13:34:16;1.50;;;1.10;;
2201;SDS011;1107;48.654;9.250;2023-05-10T13:36:45;1.40;;;1.00;;
2201;SDS011;1107;48.654;9.250;2023-05-10T13:39:12;2.33;;;1.27;;
2201;SDS011;1107;48.654;9.250;2023-05-10T13:41:39;2.50;;;1.20;;
2201;SDS011;1107;48.654;9.250;2023-05-10T13:44:06;2.33;;;1.27;;
2201;SDS011;1107;48.654;9.250;2023-05-10T13:46:34;1.77;;;1.37;;
2201;SDS011;1107;48.654;9.250;2023-05-10T13:49:02;1.70;;;1.30;;
2201;SDS011;1107;48.654;9.250;2023-05-10T13:51:29;1.60;;;1.10;;
2201;SDS011;1107;48.654;9.250;2023-05-10T13:53:57;1.50;;;1.00;;
2201;SDS011;1107;48.654;9.250;2023-05-10T13:56:24;6.70;;;1.20;;
2201;SDS011;1107;48.654;9.250;2023-05-10T13:58:51;1.70;;;1.03;;
2201;SDS011;1107;48.654;9.250;2023-05-10T14:01:18;3.30;;;1.13;;
2201;SDS011;1107;48.654;9.250;2023-05-10T14:03:46;4.00;;;1.40;;
2201;SDS011;1107;48.654;9.250;2023-05-10T14:06:13;1.80;;;1.40;;
2201;SDS011;1107;48.654;9.250;2023-05-10T14:08:40;1.40;;;1.17;;
2201;SDS011;1107;48.654;9.250;2023-05-10T14:11:07;1.70;;;1.13;;
2201;SDS011;1107;48.654;9.250;2023-05-10T14:13:34;1.90;;;1.10;;
2201;SDS011;1107;48.654;9.250;2023-05-10T14:16:01;1.50;;;1.10;;
2201;SDS011;1107;48.654;9.250;2023-05-10T14:18:28;1.63;;;1.47;;
2201;SDS011;1107;48.654;9.250;2023-05-10T14:20:57;2.23;;;1.23;;
2201;SDS011;1107;48.654;9.250;2023-05-10T14:23:23;4.43;;;1.17;;
2201;SDS011;1107;48.654;9.250;2023-05-10T14:25:51;2.10;;;1.20;;
2201;SDS011;1107;48.654;9.250;2023-05-10T14:28:18;1.53;;;1.00;;
2201;SDS011;1107;48.654;9.250;2023-05-10T14:30:46;1.90;;;1.70;;
2201;SDS011;1107;48.654;9.250;2023-05-10T14:33:12;1.50;;;1.10;;
2201;SDS011;1107;48.654;9.250;2023-05-10T14:35:40;3.30;;;1.60;;
2201;SDS011;1107;48.654;9.250;2023-05-10T14:38:08;1.80;;;1.50;;
2201;SDS011;1107;48.654;9.250;2023-05-10T14:40:35;1.97;;;1.77;;
2201;SDS011;1107;48.654;9.250;2023-05-10T14:43:02;1.67;;;0.83;;
2201;SDS011;1107;48.654;9.250;2023-05-10T14:45:29;1.70;;;1.23;;
2201;SDS011;1107;48.654;9.250;2023-05-10T14:47:56;1.50;;;1.00;;
2201;SDS011;1107;48.654;9.250;2023-05-10T14:50:24;1.40;;;1.00;;
2201;SDS011;1107;48.654;9.250;2023-05-10T14:52:51;4.90;;;1.30;;
2201;SDS011;1107;48.654;9.250;2023-05-10T14:55:19;1.50;;;1.10;;
2201;SDS011;1107;48.654;9.250;2023-05-10T14:57:46;3.97;;;1.23;;
2201;SDS011;1107;48.654;9.250;2023-05-10T15:00:15;1.60;;;1.00;;
2201;SDS011;1107;48.654;9.250;2023-05-10T15:02:44;1.73;;;1.43;;
2201;SDS011;1107;48.654;9.250;2023-05-10T15:05:12;1.60;;;1.20;;
2201;SDS011;1107;48.654;9.250;2023-05-10T15:07:39;2.70;;;1.10;;
2201;SDS011;1107;48.654;9.250;2023-05-10T15:10:08;1.60;;;1.10;;
2201;SDS011;1107;48.654;9.250;2023-05-10T15:12:37;2.57;;;1.67;;
2201;SDS011;1107;48.654;9.250;2023-05-10T15:15:05;1.50;;;1.20;;
2201;SDS011;1107;48.654;9.250;2023-05-10T15:17:33;1.50;;;1.03;;
2201;SDS011;1107;48.654;9.250;2023-05-10T15:20:00;2.60;;;1.40;;
2201;SDS011;1107;48.654;9.250;2023-05-10T15:22:29;1.57;;;1.03;;
2201;SDS011;1107;48.654;9.250;2023-05-10T15:24:56;5.77;;;1.20;;
2201;SDS011;1107;48.654;9.250;2023-05-10T15:27:23;1.50;;;1.23;;
2201;SDS011;1107;48.654;9.250;2023-05-10T15:29:51;4.87;;;1.93;;
2201;SDS011;1107;48.654;9.250;2023-05-10T15:32:19;2.10;;;1.20;;
2201;SDS011;1107;48.654;9.250;2023-05-10T15:34:45;1.70;;;1.10;;